sensor_id;sensor_type;location;lat;lon;timestamp;temperature;humidity
17053;DHT22;8643;48.824;11.422;2023-04-12T00:02:39;4.30;99.90
17053;DHT22;8643;48.824;11.422;2023-04-12T00:05:11;4.20;99.90
17053;DHT22;8643;48.824;11.422;2023-04-12T00:07:40;4.20;99.90
17053;DHT22;8643;48.824;11.422;2023-04-12T00:10:12;4.20;99.90
17053;DHT22;8643;48.824;11.422;2023-04-12T00:12:41;4.10;99.90
17053;DHT22;8643;48.824;11.422;2023-04-12T00:15:10;6.80;99.90
17053;DHT22;8643;48.824;11.422;2023-04-12T00:17:39;4.10;99.90
17053;DHT22;8643;48.824;11.422;2023-04-12T00:20:09;4.10;99.90
17053;DHT22;8643;48.824;11.422;2023-04-12T00:22:39;4.10;99.90
17053;DHT22;8643;48.824;11.422;2023-04-12T00:25:08;4.00;99.90
17053;DHT22;8643;48.824;11.422;2023-04-12T00:27:38;4.10;99.90
17053;DHT22;8643;48.824;11.422;2023-04-12T00:30:07;4.10;99.90
17053;DHT22;8643;48.824;11.422;2023-04-12T00:32:36;5.00;99.90
17053;DHT22;8643;48.824;11.422;2023-04-12T00:35:05;4.10;99.90
17053;DHT22;8643;48.824;11.422;2023-04-12T00:37:35;4.10;99.90
17053;DHT22;8643;48.824;11.422;2023-04-12T00:40:05;4.10;99.90
17053;DHT22;8643;48.824;11.422;2023-04-12T00:42:36;5.70;99.90
17053;DHT22;8643;48.824;11.422;2023-04-12T00:45:05;4.10;99.90
17053;DHT22;8643;48.824;11.422;2023-04-12T00:47:36;4.10;99.90
17053;DHT22;8643;48.824;11.422;2023-04-12T00:50:07;4.10;99.90
17053;DHT22;8643;48.824;11.422;2023-04-12T00:52:38;4.00;99.90
17053;DHT22;8643;48.824;11.422;2023-04-12T00:55:08;4.00;99.90
17053;DHT22;8643;48.824;11.422;2023-04-12T00:57:37;3.10;99.90
17053;DHT22;8643;48.824;11.422;2023-04-12T01:00:09;4.00;99.90
17053;DHT22;8643;48.824;11.422;2023-04-12T01:02:40;4.10;99.90
17053;DHT22;8643;48.824;11.422;2023-04-12T01:05:16;4.10;99.90
17053;DHT22;8643;48.824;11.422;2023-04-12T01:08:03;2.90;99.90
17053;DHT22;8643;48.824;11.422;2023-04-12T01:10:45;4.10;99.90
17053;DHT22;8643;48.824;11.422;2023-04-12T01:13:27;4.10;99.90
17053;DHT22;8643;48.824;11.422;2023-04-12T01:16:08;5.30;99.90
17053;DHT22;8643;48.824;11.422;2023-04-12T01:18:44;4.10;99.90
17053;DHT22;8643;48.824;11.422;2023-04-12T01:21:23;4.10;99.90
17053;DHT22;8643;48.824;11.422;2023-04-12T01:24:13;4.10;99.90
17053;DHT22;8643;48.824;11.422;2023-04-12T01:26:51;4.10;99.90
17053;DHT22;8643;48.824;11.422;2023-04-12T01:29:26;4.10;99.90
17053;DHT22;8643;48.824;11.422;2023-04-12T01:31:59;4.10;99.90
17053;DHT22;8643;48.824;11.422;2023-04-12T01:34:32;4.20;99.90
17053;DHT22;8643;48.824;11.422;2023-04-12T01:37:03;4.20;99.90
17053;DHT22;8643;48.824;11.422;2023-04-12T01:39:32;4.20;99.90
17053;DHT22;8643;48.824;11.422;2023-04-12T01:42:01;5.00;99.90
17053;DHT22;8643;48.824;11.422;2023-04-12T01:44:31;4.20;99.90
17053;DHT22;8643;48.824;11.422;2023-04-12T01:46:59;4.30;99.90
17053;DHT22;8643;48.824;11.422;2023-04-12T01:49:31;4.30;99.90
17053;DHT22;8643;48.824;11.422;2023-04-12T01:52:11;4.20;99.90
17053;DHT22;8643;48.824;11.422;2023-04-12T01:54:48;4.40;99.90
17053;DHT22;8643;48.824;11.422;2023-04-12T01:57:20;4.50;99.90
17053;DHT22;8643;48.824;11.422;2023-04-12T01:59:52;4.50;99.90
17053;DHT22;8643;48.824;11.422;2023-04-12T02:02:24;5.20;99.90
17053;DHT22;8643;48.824;11.422;2023-04-12T02:04:54;4.80;99.90
17053;DHT22;8643;48.824;11.422;2023-04-12T02:07:23;4.80;99.90
17053;DHT22;8643;48.824;11.422;2023-04-12T02:09:51;4.90;99.90
17053;DHT22;8643;48.824;11.422;2023-04-12T02:12:21;5.00;99.90
17053;DHT22;8643;48.824;11.422;2023-04-12T02:14:51;4.90;99.90
17053;DHT22;8643;48.824;11.422;2023-04-12T02:17:20;4.90;99.90
17053;DHT22;8643;48.824;11.422;2023-04-12T02:19:49;4.90;99.90
17053;DHT22;8643;48.824;11.422;2023-04-12T02:27:17;4.90;99.90
17053;DHT22;8643;48.824;11.422;2023-04-12T02:29:45;4.80;99.90
17053;DHT22;8643;48.824;11.422;2023-04-12T02:32:15;4.50;99.90
17053;DHT22;8643;48.824;11.422;2023-04-12T02:34:43;4.80;99.90
17053;DHT22;8643;48.824;11.422;2023-04-12T02:39:50;4.70;99.90
17053;DHT22;8643;48.824;11.422;2023-04-12T02:42:23;4.70;99.90
17053;DHT22;8643;48.824;11.422;2023-04-12T02:44:52;4.60;99.90
17053;DHT22;8643;48.824;11.422;2023-04-12T02:47:22;4.70;99.90
17053;DHT22;8643;48.824;11.422;2023-04-12T02:49:55;4.60;99.90
17053;DHT22;8643;48.824;11.422;2023-04-12T02:52:24;5.00;99.90
17053;DHT22;8643;48.824;11.422;2023-04-12T02:55:02;4.60;99.90
17053;DHT22;8643;48.824;11.422;2023-04-12T02:57:30;4.50;99.90
17053;DHT22;8643;48.824;11.422;2023-04-12T03:00:00;4.60;99.90
17053;DHT22;8643;48.824;11.422;2023-04-12T03:02:42;4.60;99.90
17053;DHT22;8643;48.824;11.422;2023-04-12T03:05:18;4.50;99.90
17053;DHT22;8643;48.824;11.422;2023-04-12T03:07:47;4.50;99.90
17053;DHT22;8643;48.824;11.422;2023-04-12T03:13:08;4.50;99.90
17053;DHT22;8643;48.824;11.422;2023-04-12T03:15:40;4.50;99.90
17053;DHT22;8643;48.824;11.422;2023-04-12T03:18:11;4.40;99.90
17053;DHT22;8643;48.824;11.422;2023-04-12T03:20:46;4.40;99.90
17053;DHT22;8643;48.824;11.422;2023-04-12T03:23:17;4.40;99.90
17053;DHT22;8643;48.824;11.422;2023-04-12T03:25:54;4.40;99.90
17053;DHT22;8643;48.824;11.422;2023-04-12T03:28:35;4.40;99.90
17053;DHT22;8643;48.824;11.422;2023-04-12T03:31:05;4.40;99.90
17053;DHT22;8643;48.824;11.422;2023-04-12T03:33:40;4.40;99.90
17053;DHT22;8643;48.824;11.422;2023-04-12T03:36:18;4.40;99.90
17053;DHT22;8643;48.824;11.422;2023-04-12T03:38:53;4.40;99.90
17053;DHT22;8643;48.824;11.422;2023-04-12T03:41:22;4.40;99.90
17053;DHT22;8643;48.824;11.422;2023-04-12T03:46:19;4.40;99.90
17053;DHT22;8643;48.824;11.422;2023-04-12T03:48:55;4.40;99.90
17053;DHT22;8643;48.824;11.422;2023-04-12T03:51:25;4.40;99.90
17053;DHT22;8643;48.824;11.422;2023-04-12T03:54:02;4.50;99.90
17053;DHT22;8643;48.824;11.422;2023-04-12T03:56:42;4.50;99.90
17053;DHT22;8643;48.824;11.422;2023-04-12T03:59:20;4.50;99.90
17053;DHT22;8643;48.824;11.422;2023-04-12T04:01:49;4.50;99.90
17053;DHT22;8643;48.824;11.422;2023-04-12T04:04:19;4.60;99.90
17053;DHT22;8643;48.824;11.422;2023-04-12T04:06:53;4.60;99.90
17053;DHT22;8643;48.824;11.422;2023-04-12T04:11:52;4.70;99.90
17053;DHT22;8643;48.824;11.422;2023-04-12T04:14:22;4.60;99.90
17053;DHT22;8643;48.824;11.422;2023-04-12T04:16:51;4.70;99.90
17053;DHT22;8643;48.824;11.422;2023-04-12T04:19:21;4.70;99.90
17053;DHT22;8643;48.824;11.422;2023-04-12T04:24:19;4.70;99.90
17053;DHT22;8643;48.824;11.422;2023-04-12T04:26:51;4.70;99.90
17053;DHT22;8643;48.824;11.422;2023-04-12T04:29:24;4.80;99.90
17053;DHT22;8643;48.824;11.422;2023-04-12T04:31:54;4.80;99.90
17053;DHT22;8643;48.824;11.422;2023-04-12T04:34:25;4.80;99.90
17053;DHT22;8643;48.824;11.422;2023-04-12T04:37:04;4.90;99.90
17053;DHT22;8643;48.824;11.422;2023-04-12T04:39:33;4.90;99.90
17053;DHT22;8643;48.824;11.422;2023-04-12T04:42:03;4.90;99.90
17053;DHT22;8643;48.824;11.422;2023-04-12T04:44:37;5.00;99.90
17053;DHT22;8643;48.824;11.422;2023-04-12T04:49:39;5.10;99.90
17053;DHT22;8643;48.824;11.422;2023-04-12T04:52:23;5.00;99.90
17053;DHT22;8643;48.824;11.422;2023-04-12T04:54:57;4.90;99.90
17053;DHT22;8643;48.824;11.422;2023-04-12T05:00:04;6.30;99.90
17053;DHT22;8643;48.824;11.422;2023-04-12T05:02:38;5.10;99.90
17053;DHT22;8643;48.824;11.422;2023-04-12T05:05:13;5.10;99.90
17053;DHT22;8643;48.824;11.422;2023-04-12T05:07:44;5.10;99.90
17053;DHT22;8643;48.824;11.422;2023-04-12T05:10:13;5.10;99.90
17053;DHT22;8643;48.824;11.422;2023-04-12T05:15:13;4.70;99.90
17053;DHT22;8643;48.824;11.422;2023-04-12T05:17:42;5.20;99.90
17053;DHT22;8643;48.824;11.422;2023-04-12T05:20:11;5.20;99.90
17053;DHT22;8643;48.824;11.422;2023-04-12T05:22:41;5.20;99.90
17053;DHT22;8643;48.824;11.422;2023-04-12T05:25:10;5.30;99.90
17053;DHT22;8643;48.824;11.422;2023-04-12T05:27:46;5.30;99.90
17053;DHT22;8643;48.824;11.422;2023-04-12T05:32:49;5.30;99.90
17053;DHT22;8643;48.824;11.422;2023-04-12T05:35:19;5.40;99.90
17053;DHT22;8643;48.824;11.422;2023-04-12T05:37:52;5.40;99.90
17053;DHT22;8643;48.824;11.422;2023-04-12T05:40:20;5.40;99.90
17053;DHT22;8643;48.824;11.422;2023-04-12T05:42:51;5.40;99.90
17053;DHT22;8643;48.824;11.422;2023-04-12T05:45:19;5.40;99.90
17053;DHT22;8643;48.824;11.422;2023-04-12T05:47:48;5.50;99.90
17053;DHT22;8643;48.824;11.422;2023-04-12T05:50:16;5.50;99.90
17053;DHT22;8643;48.824;11.422;2023-04-12T05:52:47;5.60;99.90
17053;DHT22;8643;48.824;11.422;2023-04-12T05:55:20;5.60;99.90
17053;DHT22;8643;48.824;11.422;2023-04-12T05:57:48;5.70;99.90
17053;DHT22;8643;48.824;11.422;2023-04-12T06:00:19;6.00;99.90
17053;DHT22;8643;48.824;11.422;2023-04-12T06:02:49;5.70;99.90
17053;DHT22;8643;48.824;11.422;2023-04-12T06:05:18;5.70;99.90
17053;DHT22;8643;48.824;11.422;2023-04-12T06:07:48;5.70;99.90
17053;DHT22;8643;48.824;11.422;2023-04-12T06:10:17;5.70;99.90
17053;DHT22;8643;48.824;11.422;2023-04-12T06:15:18;5.70;99.90
17053;DHT22;8643;48.824;11.422;2023-04-12T06:17:52;5.80;99.90
17053;DHT22;8643;48.824;11.422;2023-04-12T06:20:21;5.80;99.90
17053;DHT22;8643;48.824;11.422;2023-04-12T06:22:52;5.80;99.90
17053;DHT22;8643;48.824;11.422;2023-04-12T06:25:20;5.80;99.90
17053;DHT22;8643;48.824;11.422;2023-04-12T06:27:51;5.80;99.90
17053;DHT22;8643;48.824;11.422;2023-04-12T06:30:22;5.80;99.90
17053;DHT22;8643;48.824;11.422;2023-04-12T06:32:52;5.80;99.90
17053;DHT22;8643;48.824;11.422;2023-04-12T06:35:21;5.80;99.90
17053;DHT22;8643;48.824;11.422;2023-04-12T06:37:52;5.80;99.90
17053;DHT22;8643;48.824;11.422;2023-04-12T06:40:21;5.80;99.90
17053;DHT22;8643;48.824;11.422;2023-04-12T06:45:21;6.00;99.90
17053;DHT22;8643;48.824;11.422;2023-04-12T06:47:50;6.00;99.90
17053;DHT22;8643;48.824;11.422;2023-04-12T06:50:20;6.00;99.90
17053;DHT22;8643;48.824;11.422;2023-04-12T06:52:49;6.00;99.90
17053;DHT22;8643;48.824;11.422;2023-04-12T06:55:19;6.00;99.90
17053;DHT22;8643;48.824;11.422;2023-04-12T06:57:48;6.10;99.90
17053;DHT22;8643;48.824;11.422;2023-04-12T07:00:18;8.50;99.90
17053;DHT22;8643;48.824;11.422;2023-04-12T07:02:46;6.20;99.90
17053;DHT22;8643;48.824;11.422;2023-04-12T07:05:15;6.30;99.90
17053;DHT22;8643;48.824;11.422;2023-04-12T07:07:44;6.40;99.90
17053;DHT22;8643;48.824;11.422;2023-04-12T07:10:13;6.30;99.90
17053;DHT22;8643;48.824;11.422;2023-04-12T07:12:42;6.40;99.90
17053;DHT22;8643;48.824;11.422;2023-04-12T07:15:11;6.50;99.90
17053;DHT22;8643;48.824;11.422;2023-04-12T07:17:40;6.60;99.90
17053;DHT22;8643;48.824;11.422;2023-04-12T07:20:09;6.60;99.90
17053;DHT22;8643;48.824;11.422;2023-04-12T07:22:38;6.70;99.90
17053;DHT22;8643;48.824;11.422;2023-04-12T07:25:07;6.60;99.90
17053;DHT22;8643;48.824;11.422;2023-04-12T07:27:36;6.60;99.90
17053;DHT22;8643;48.824;11.422;2023-04-12T07:30:07;6.60;99.90
17053;DHT22;8643;48.824;11.422;2023-04-12T07:35:06;6.70;99.90
17053;DHT22;8643;48.824;11.422;2023-04-12T07:37:35;6.80;99.90
17053;DHT22;8643;48.824;11.422;2023-04-12T07:40:05;6.90;99.90
17053;DHT22;8643;48.824;11.422;2023-04-12T07:42:34;6.80;99.90
17053;DHT22;8643;48.824;11.422;2023-04-12T07:45:03;6.80;99.90
17053;DHT22;8643;48.824;11.422;2023-04-12T07:47:35;6.70;99.90
17053;DHT22;8643;48.824;11.422;2023-04-12T07:50:05;6.90;99.90
17053;DHT22;8643;48.824;11.422;2023-04-12T07:55:07;6.90;99.90
17053;DHT22;8643;48.824;11.422;2023-04-12T07:57:36;6.90;99.90
17053;DHT22;8643;48.824;11.422;2023-04-12T08:00:07;6.80;99.90
17053;DHT22;8643;48.824;11.422;2023-04-12T08:02:39;6.90;99.90
17053;DHT22;8643;48.824;11.422;2023-04-12T08:05:08;6.90;99.90
17053;DHT22;8643;48.824;11.422;2023-04-12T08:10:06;7.00;99.90
17053;DHT22;8643;48.824;11.422;2023-04-12T08:12:35;7.10;99.90
17053;DHT22;8643;48.824;11.422;2023-04-12T08:15:06;7.10;99.90
17053;DHT22;8643;48.824;11.422;2023-04-12T08:17:35;7.20;99.90
17053;DHT22;8643;48.824;11.422;2023-04-12T08:20:05;7.20;99.90
17053;DHT22;8643;48.824;11.422;2023-04-12T08:22:34;7.30;99.90
17053;DHT22;8643;48.824;11.422;2023-04-12T08:25:03;7.20;99.90
17053;DHT22;8643;48.824;11.422;2023-04-12T08:30:02;7.30;99.90
17053;DHT22;8643;48.824;11.422;2023-04-12T08:32:32;7.40;99.90
17053;DHT22;8643;48.824;11.422;2023-04-12T08:35:01;7.40;99.90
17053;DHT22;8643;48.824;11.422;2023-04-12T08:37:29;7.50;99.90
17053;DHT22;8643;48.824;11.422;2023-04-12T08:39:58;7.50;99.90
17053;DHT22;8643;48.824;11.422;2023-04-12T08:42:34;7.80;99.90
17053;DHT22;8643;48.824;11.422;2023-04-12T08:45:04;7.70;99.90
17053;DHT22;8643;48.824;11.422;2023-04-12T08:47:36;7.70;99.90
17053;DHT22;8643;48.824;11.422;2023-04-12T08:50:07;7.70;99.90
17053;DHT22;8643;48.824;11.422;2023-04-12T08:52:39;7.60;99.90
17053;DHT22;8643;48.824;11.422;2023-04-12T08:55:09;7.70;99.90
17053;DHT22;8643;48.824;11.422;2023-04-12T08:57:40;7.70;99.90
17053;DHT22;8643;48.824;11.422;2023-04-12T09:00:10;7.70;99.90
17053;DHT22;8643;48.824;11.422;2023-04-12T09:02:41;7.70;99.90
17053;DHT22;8643;48.824;11.422;2023-04-12T09:05:13;7.70;99.90
17053;DHT22;8643;48.824;11.422;2023-04-12T09:07:42;7.70;99.90
17053;DHT22;8643;48.824;11.422;2023-04-12T09:12:57;7.60;99.90
17053;DHT22;8643;48.824;11.422;2023-04-12T09:15:25;7.70;99.90
17053;DHT22;8643;48.824;11.422;2023-04-12T09:18:06;7.80;99.90
17053;DHT22;8643;48.824;11.422;2023-04-12T09:20:37;7.70;99.90
17053;DHT22;8643;48.824;11.422;2023-04-12T09:23:16;7.80;99.90
17053;DHT22;8643;48.824;11.422;2023-04-12T09:25:46;7.80;99.90
17053;DHT22;8643;48.824;11.422;2023-04-12T09:28:19;7.90;99.90
17053;DHT22;8643;48.824;11.422;2023-04-12T09:30:50;8.00;99.90
17053;DHT22;8643;48.824;11.422;2023-04-12T09:33:23;8.10;99.90
17053;DHT22;8643;48.824;11.422;2023-04-12T09:36:01;8.20;99.90
17053;DHT22;8643;48.824;11.422;2023-04-12T09:38:30;8.10;99.90
17053;DHT22;8643;48.824;11.422;2023-04-12T09:41:15;8.30;99.90
17053;DHT22;8643;48.824;11.422;2023-04-12T09:43:49;8.30;99.90
17053;DHT22;8643;48.824;11.422;2023-04-12T09:46:17;8.30;99.90
17053;DHT22;8643;48.824;11.422;2023-04-12T09:48:50;8.30;99.90
17053;DHT22;8643;48.824;11.422;2023-04-12T09:51:24;8.30;99.90
17053;DHT22;8643;48.824;11.422;2023-04-12T09:53:58;8.50;99.90
17053;DHT22;8643;48.824;11.422;2023-04-12T09:56:29;10.00;99.90
17053;DHT22;8643;48.824;11.422;2023-04-12T09:59:00;8.80;99.90
17053;DHT22;8643;48.824;11.422;2023-04-12T10:01:33;8.60;99.90
17053;DHT22;8643;48.824;11.422;2023-04-12T10:04:07;8.60;99.90
17053;DHT22;8643;48.824;11.422;2023-04-12T10:06:37;8.50;99.90
17053;DHT22;8643;48.824;11.422;2023-04-12T10:09:07;8.50;99.90
17053;DHT22;8643;48.824;11.422;2023-04-12T10:11:36;9.50;99.90
17053;DHT22;8643;48.824;11.422;2023-04-12T10:14:09;8.50;99.90
17053;DHT22;8643;48.824;11.422;2023-04-12T10:16:43;8.60;99.90
17053;DHT22;8643;48.824;11.422;2023-04-12T10:19:14;8.60;99.90
17053;DHT22;8643;48.824;11.422;2023-04-12T10:21:45;8.60;99.90
17053;DHT22;8643;48.824;11.422;2023-04-12T10:24:13;8.70;99.90
17053;DHT22;8643;48.824;11.422;2023-04-12T10:26:43;8.70;99.90
17053;DHT22;8643;48.824;11.422;2023-04-12T10:29:22;8.80;99.90
17053;DHT22;8643;48.824;11.422;2023-04-12T10:31:53;8.70;99.90
17053;DHT22;8643;48.824;11.422;2023-04-12T10:34:26;8.60;99.90
17053;DHT22;8643;48.824;11.422;2023-04-12T10:36:56;8.50;99.90
17053;DHT22;8643;48.824;11.422;2023-04-12T10:39:37;8.50;99.90
17053;DHT22;8643;48.824;11.422;2023-04-12T10:42:17;8.50;99.90
17053;DHT22;8643;48.824;11.422;2023-04-12T10:44:49;8.60;99.90
17053;DHT22;8643;48.824;11.422;2023-04-12T10:50:31;9.50;99.90
17053;DHT22;8643;48.824;11.422;2023-04-12T10:53:22;8.90;99.90
17053;DHT22;8643;48.824;11.422;2023-04-12T10:55:51;8.80;99.90
17053;DHT22;8643;48.824;11.422;2023-04-12T10:58:57;8.80;99.90
17053;DHT22;8643;48.824;11.422;2023-04-12T11:01:32;8.80;99.90
17053;DHT22;8643;48.824;11.422;2023-04-12T11:04:15;8.90;99.90
17053;DHT22;8643;48.824;11.422;2023-04-12T11:07:01;9.00;99.90
17053;DHT22;8643;48.824;11.422;2023-04-12T11:09:56;9.00;99.90
17053;DHT22;8643;48.824;11.422;2023-04-12T11:15:06;9.00;99.90
17053;DHT22;8643;48.824;11.422;2023-04-12T11:17:53;9.00;99.90
17053;DHT22;8643;48.824;11.422;2023-04-12T11:20:22;9.20;99.90
17053;DHT22;8643;48.824;11.422;2023-04-12T11:22:55;9.30;99.90
17053;DHT22;8643;48.824;11.422;2023-04-12T11:25:24;9.40;99.90
17053;DHT22;8643;48.824;11.422;2023-04-12T11:27:54;9.50;99.90
17053;DHT22;8643;48.824;11.422;2023-04-12T11:30:27;9.60;99.90
17053;DHT22;8643;48.824;11.422;2023-04-12T11:32:55;9.80;99.90
17053;DHT22;8643;48.824;11.422;2023-04-12T11:35:27;9.80;99.90
17053;DHT22;8643;48.824;11.422;2023-04-12T11:37:57;9.70;99.90
17053;DHT22;8643;48.824;11.422;2023-04-12T11:40:26;9.70;99.90
17053;DHT22;8643;48.824;11.422;2023-04-12T11:42:55;9.60;99.90
17053;DHT22;8643;48.824;11.422;2023-04-12T11:45:24;9.60;99.90
17053;DHT22;8643;48.824;11.422;2023-04-12T11:47:55;9.60;99.90
17053;DHT22;8643;48.824;11.422;2023-04-12T11:50:28;9.80;99.90
17053;DHT22;8643;48.824;11.422;2023-04-12T11:53:10;9.90;99.90
17053;DHT22;8643;48.824;11.422;2023-04-12T11:55:38;9.90;99.90
17053;DHT22;8643;48.824;11.422;2023-04-12T11:58:08;10.10;99.90
17053;DHT22;8643;48.824;11.422;2023-04-12T12:00:36;10.20;99.90
17053;DHT22;8643;48.824;11.422;2023-04-12T12:03:05;10.40;99.90
17053;DHT22;8643;48.824;11.422;2023-04-12T12:05:36;10.40;99.90
17053;DHT22;8643;48.824;11.422;2023-04-12T12:08:06;10.40;99.90
17053;DHT22;8643;48.824;11.422;2023-04-12T12:10:38;10.50;99.90
17053;DHT22;8643;48.824;11.422;2023-04-12T12:13:26;10.50;99.90
17053;DHT22;8643;48.824;11.422;2023-04-12T12:15:56;10.50;99.90
17053;DHT22;8643;48.824;11.422;2023-04-12T12:18:25;10.50;99.90
17053;DHT22;8643;48.824;11.422;2023-04-12T12:20:54;10.50;99.90
17053;DHT22;8643;48.824;11.422;2023-04-12T12:23:28;10.50;99.90
17053;DHT22;8643;48.824;11.422;2023-04-12T12:25:59;10.40;99.90
17053;DHT22;8643;48.824;11.422;2023-04-12T12:28:49;10.30;99.90
17053;DHT22;8643;48.824;11.422;2023-04-12T12:31:19;10.40;99.90
17053;DHT22;8643;48.824;11.422;2023-04-12T12:33:53;10.40;99.90
17053;DHT22;8643;48.824;11.422;2023-04-12T12:36:28;10.50;99.90
17053;DHT22;8643;48.824;11.422;2023-04-12T12:39:03;10.80;99.90
17053;DHT22;8643;48.824;11.422;2023-04-12T12:41:38;11.00;99.90
17053;DHT22;8643;48.824;11.422;2023-04-12T12:44:07;11.00;99.90
17053;DHT22;8643;48.824;11.422;2023-04-12T12:46:37;11.10;99.90
17053;DHT22;8643;48.824;11.422;2023-04-12T12:49:19;11.00;99.90
17053;DHT22;8643;48.824;11.422;2023-04-12T12:51:49;11.00;99.90
17053;DHT22;8643;48.824;11.422;2023-04-12T12:54:18;11.00;99.90
17053;DHT22;8643;48.824;11.422;2023-04-12T12:57:08;10.90;99.90
17053;DHT22;8643;48.824;11.422;2023-04-12T12:59:36;11.30;99.90
17053;DHT22;8643;48.824;11.422;2023-04-12T13:02:05;10.70;99.90
17053;DHT22;8643;48.824;11.422;2023-04-12T13:04:34;10.80;99.90
17053;DHT22;8643;48.824;11.422;2023-04-12T13:07:03;10.80;99.90
17053;DHT22;8643;48.824;11.422;2023-04-12T13:09:32;10.80;99.90
17053;DHT22;8643;48.824;11.422;2023-04-12T13:14:31;11.00;99.90
17053;DHT22;8643;48.824;11.422;2023-04-12T13:17:00;11.40;99.90
17053;DHT22;8643;48.824;11.422;2023-04-12T13:19:29;12.10;99.90
17053;DHT22;8643;48.824;11.422;2023-04-12T13:21:57;12.60;99.90
17053;DHT22;8643;48.824;11.422;2023-04-12T13:26:55;13.70;99.90
17053;DHT22;8643;48.824;11.422;2023-04-12T13:29:24;14.60;99.90
17053;DHT22;8643;48.824;11.422;2023-04-12T13:31:54;15.00;99.90
17053;DHT22;8643;48.824;11.422;2023-04-12T13:34:22;14.70;99.90
17053;DHT22;8643;48.824;11.422;2023-04-12T13:36:51;14.30;99.90
17053;DHT22;8643;48.824;11.422;2023-04-12T13:39:20;13.90;99.90
17053;DHT22;8643;48.824;11.422;2023-04-12T13:41:48;13.40;99.90
17053;DHT22;8643;48.824;11.422;2023-04-12T13:44:17;13.20;99.90
17053;DHT22;8643;48.824;11.422;2023-04-12T13:46:45;12.80;99.90
17053;DHT22;8643;48.824;11.422;2023-04-12T13:49:15;12.60;99.90
17053;DHT22;8643;48.824;11.422;2023-04-12T13:51:44;12.20;99.90
17053;DHT22;8643;48.824;11.422;2023-04-12T13:54:13;12.00;99.90
17053;DHT22;8643;48.824;11.422;2023-04-12T13:56:43;11.70;99.90
17053;DHT22;8643;48.824;11.422;2023-04-12T13:59:11;11.50;99.90
17053;DHT22;8643;48.824;11.422;2023-04-12T14:01:40;11.30;99.90
17053;DHT22;8643;48.824;11.422;2023-04-12T14:04:09;11.20;99.90
17053;DHT22;8643;48.824;11.422;2023-04-12T14:06:39;11.10;99.90
17053;DHT22;8643;48.824;11.422;2023-04-12T14:09:07;11.00;99.90
17053;DHT22;8643;48.824;11.422;2023-04-12T14:11:46;10.90;99.90
17053;DHT22;8643;48.824;11.422;2023-04-12T14:14:14;10.80;99.90
17053;DHT22;8643;48.824;11.422;2023-04-12T14:16:43;10.80;99.90
17053;DHT22;8643;48.824;11.422;2023-04-12T14:19:11;10.80;99.90
17053;DHT22;8643;48.824;11.422;2023-04-12T14:21:41;10.80;99.90
17053;DHT22;8643;48.824;11.422;2023-04-12T14:24:09;10.70;99.90
17053;DHT22;8643;48.824;11.422;2023-04-12T14:26:38;10.90;99.90
17053;DHT22;8643;48.824;11.422;2023-04-12T14:29:07;10.80;99.90
17053;DHT22;8643;48.824;11.422;2023-04-12T14:31:36;11.00;99.90
17053;DHT22;8643;48.824;11.422;2023-04-12T14:34:05;11.00;99.90
17053;DHT22;8643;48.824;11.422;2023-04-12T14:36:34;11.00;99.90
17053;DHT22;8643;48.824;11.422;2023-04-12T14:39:04;11.10;99.90
17053;DHT22;8643;48.824;11.422;2023-04-12T14:41:37;11.10;99.90
17053;DHT22;8643;48.824;11.422;2023-04-12T14:44:06;11.30;99.90
17053;DHT22;8643;48.824;11.422;2023-04-12T14:49:04;11.50;99.90
17053;DHT22;8643;48.824;11.422;2023-04-12T14:51:32;11.60;99.90
17053;DHT22;8643;48.824;11.422;2023-04-12T14:59:10;11.80;99.90
17053;DHT22;8643;48.824;11.422;2023-04-12T15:01:40;11.90;99.90
17053;DHT22;8643;48.824;11.422;2023-04-12T15:04:09;12.00;99.90
17053;DHT22;8643;48.824;11.422;2023-04-12T15:06:39;12.10;99.90
17053;DHT22;8643;48.824;11.422;2023-04-12T15:09:13;11.60;99.90
17053;DHT22;8643;48.824;11.422;2023-04-12T15:11:43;12.00;99.90
17053;DHT22;8643;48.824;11.422;2023-04-12T15:14:13;12.10;99.90
17053;DHT22;8643;48.824;11.422;2023-04-12T15:16:46;12.20;99.90
17053;DHT22;8643;48.824;11.422;2023-04-12T15:19:16;12.30;99.90
17053;DHT22;8643;48.824;11.422;2023-04-12T15:21:49;12.40;99.90
17053;DHT22;8643;48.824;11.422;2023-04-12T15:24:23;12.50;99.90
17053;DHT22;8643;48.824;11.422;2023-04-12T15:29:21;12.70;99.90
17053;DHT22;8643;48.824;11.422;2023-04-12T15:34:19;12.70;99.90
17053;DHT22;8643;48.824;11.422;2023-04-12T15:36:49;12.60;99.90
17053;DHT22;8643;48.824;11.422;2023-04-12T15:39:19;12.70;99.90
17053;DHT22;8643;48.824;11.422;2023-04-12T15:41:49;12.90;99.90
17053;DHT22;8643;48.824;11.422;2023-04-12T15:44:18;12.90;99.90
17053;DHT22;8643;48.824;11.422;2023-04-12T15:49:33;13.10;99.90
17053;DHT22;8643;48.824;11.422;2023-04-12T15:52:02;13.30;99.90
17053;DHT22;8643;48.824;11.422;2023-04-12T15:54:31;13.50;99.90
17053;DHT22;8643;48.824;11.422;2023-04-12T15:57:01;13.90;99.90
17053;DHT22;8643;48.824;11.422;2023-04-12T15:59:35;14.20;99.90
17053;DHT22;8643;48.824;11.422;2023-04-12T16:02:04;14.30;99.90
17053;DHT22;8643;48.824;11.422;2023-04-12T16:04:36;14.40;99.90
17053;DHT22;8643;48.824;11.422;2023-04-12T16:07:05;14.50;99.90
17053;DHT22;8643;48.824;11.422;2023-04-12T16:09:37;14.40;99.90
17053;DHT22;8643;48.824;11.422;2023-04-12T16:12:07;14.40;99.90
17053;DHT22;8643;48.824;11.422;2023-04-12T16:14:36;14.30;99.90
17053;DHT22;8643;48.824;11.422;2023-04-12T16:17:05;14.30;99.90
17053;DHT22;8643;48.824;11.422;2023-04-12T16:19:34;14.40;99.90
17053;DHT22;8643;48.824;11.422;2023-04-12T16:22:03;14.50;99.90
17053;DHT22;8643;48.824;11.422;2023-04-12T16:24:31;14.80;99.90
17053;DHT22;8643;48.824;11.422;2023-04-12T16:27:00;15.20;99.90
17053;DHT22;8643;48.824;11.422;2023-04-12T16:29:30;18.40;99.90
17053;DHT22;8643;48.824;11.422;2023-04-12T16:31:58;15.50;99.90
17053;DHT22;8643;48.824;11.422;2023-04-12T16:34:26;15.30;99.90
17053;DHT22;8643;48.824;11.422;2023-04-12T16:36:55;15.10;99.90
17053;DHT22;8643;48.824;11.422;2023-04-12T16:39:23;14.90;99.90
17053;DHT22;8643;48.824;11.422;2023-04-12T16:41:52;14.70;99.90
17053;DHT22;8643;48.824;11.422;2023-04-12T16:44:20;14.60;99.90
17053;DHT22;8643;48.824;11.422;2023-04-12T16:46:50;14.50;99.90
17053;DHT22;8643;48.824;11.422;2023-04-12T16:49:19;14.40;99.90
17053;DHT22;8643;48.824;11.422;2023-04-12T16:51:49;14.30;99.90
17053;DHT22;8643;48.824;11.422;2023-04-12T16:54:18;14.20;99.90
17053;DHT22;8643;48.824;11.422;2023-04-12T16:56:47;14.20;99.90
17053;DHT22;8643;48.824;11.422;2023-04-12T16:59:15;14.10;99.90
17053;DHT22;8643;48.824;11.422;2023-04-12T17:01:44;14.00;99.90
17053;DHT22;8643;48.824;11.422;2023-04-12T17:04:14;13.90;99.90
17053;DHT22;8643;48.824;11.422;2023-04-12T17:06:43;13.90;99.90
17053;DHT22;8643;48.824;11.422;2023-04-12T17:09:12;13.90;99.90
17053;DHT22;8643;48.824;11.422;2023-04-12T17:11:41;13.90;99.90
17053;DHT22;8643;48.824;11.422;2023-04-12T17:14:09;13.80;99.90
17053;DHT22;8643;48.824;11.422;2023-04-12T17:16:39;13.80;99.90
17053;DHT22;8643;48.824;11.422;2023-04-12T17:19:08;13.70;99.90